Terminal Aerodrome Forecast
Issued by NWS St Louis, MO

Home | Current Version | Previous Version | Text Only | Print | Product List | Glossary On
Versions: 1 2 3 4 5 6 7 8 9 10 11 12 13 14 15 16 17 18 19 20 21 22 23 24 25
741
FTUS43 KLSX 251129
TAFSTL
TAF
KSTL 251129Z 2512/2618 16008KT P6SM FEW250
     FM251500 16010G18KT P6SM FEW250
     FM251800 16016G26KT P6SM SCT250
     FM260000 16010G18KT P6SM SCT200
     FM260600 17008KT P6SM BKN100
     FM261200 17006KT P6SM BKN025=

USA.gov is the U.S. government's official web portal to all federal, state and local government web resources and services.